Mt Fionia Swan — OVJG2 — position and weather

sailwx.info

Track history (hours):
 
Tides and Currents Weather Stations Pressure Air Temp Water Temp Dewpoint Dewpoint Depression Visibility Wind Speed Wind Dir Waves Ship Positions

Mt Fionia Swan

Last reported at 2017-Oct-21 20:03 UTC. Time now 2017-Oct-22 22:57 UTC.
Position N 36°08' W 005°26'.

Length 148 m; draft 6.5 m.

Type: Tanker. MMSI: 220441000.

Date/timePositionNaut miles runAvg speedWind from/ knotsBaromVisibWave heightAir tempDewpointWater temp
2017-Oct-21 20:03N 36°08' W 005°26'0 0.0
2017-Oct-21 19:56N 36°08' W 005°26'0 0.0
2017-Oct-21 19:30N 36°08' W 005°26'3 0.1
2017-Oct-20 06:02N 36°05' W 005°25'0 0.1
2017-Oct-20 05:38N 36°05' W 005°25'0 0.2
2017-Oct-20 05:29N 36°05' W 005°25'0 0.1
2017-Oct-20 04:59N 36°05' W 005°25'0 0.1
2017-Oct-20 04:29N 36°05' W 005°25'0 0.0
2017-Oct-20 03:59N 36°05' W 005°25'0 0.0
2017-Oct-20 03:29N 36°05' W 005°25'0 0.1
2017-Oct-20 02:59N 36°05' W 005°25'0 0.1
2017-Oct-20 02:29N 36°05' W 005°25'0 0.0
2017-Oct-20 01:59N 36°05' W 005°25'0 0.1
2017-Oct-20 01:29N 36°05' W 005°25'0 0.0
2017-Oct-20 00:59N 36°05' W 005°25'0 0.0
2017-Oct-19 23:59N 36°05' W 005°25'0 0.0
2017-Oct-19 23:26N 36°05' W 005°25'0 0.0
2017-Oct-19 22:59N 36°05' W 005°25'0 0.0
2017-Oct-19 22:29N 36°05' W 005°25'0 0.0
2017-Oct-19 21:59N 36°05' W 005°25'0 0.3
2017-Oct-19 21:29N 36°05' W 005°25'0 0.0
2017-Oct-19 20:53N 36°05' W 005°25'0 0.0
2017-Oct-19 20:29N 36°05' W 005°25'0 0.3
2017-Oct-19 20:00N 36°05' W 005°25'3 5.7
2017-Oct-19 19:30N 36°06' W 005°22'0 0.0
2017-Oct-19 05:37N 36°06' W 005°21'0 0.3
2017-Oct-19 05:30N 36°06' W 005°21'2 4.3
2017-Oct-19 05:00N 36°08' W 005°22'0 0.1
2017-Oct-19 04:30N 36°08' W 005°22'0 0.0
2017-Oct-18 22:22N 36°08' W 005°22'0 0.4
2017-Oct-18 22:01N 36°09' W 005°22'0 0.0
2017-Oct-18 17:52N 36°09' W 005°22'2 4.4
2017-Oct-18 17:29N 36°07' W 005°23'2 5.2
2017-Oct-18 17:00N 36°05' W 005°25'0 0.1
2017-Oct-18 16:21N 36°05' W 005°25'0 0.1
2017-Oct-18 16:00N 36°05' W 005°25'0 0.2
2017-Oct-18 15:21N 36°05' W 005°25'0 0.2
2017-Oct-18 14:54N 36°05' W 005°25'0 0.0
2017-Oct-18 14:00N 36°05' W 005°25'0 0.0
2017-Oct-18 13:30N 36°05' W 005°25'0 0.0
2017-Oct-18 12:57N 36°05' W 005°25'0 0.1
2017-Oct-18 12:30N 36°06' W 005°25'0 0.1
2017-Oct-18 11:57N 36°05' W 005°25'0 0.1
2017-Oct-18 11:30N 36°05' W 005°25'0 0.2
2017-Oct-18 10:57N 36°06' W 005°25'0 0.0
2017-Oct-18 10:27N 36°06' W 005°25'0 0.1
2017-Oct-18 10:00N 36°06' W 005°25'0 0.0
2017-Oct-18 09:24N 36°06' W 005°25'0 0.0
2017-Oct-18 09:00N 36°06' W 005°25'0 0.1
2017-Oct-18 08:27N 36°06' W 005°25'0 0.1
2017-Oct-18 08:00N 36°06' W 005°25'3 5.5
2017-Oct-18 07:30N 36°05' W 005°22'3 6.3
2017-Oct-18 07:00N 36°06' W 005°18'2 3.5
2017-Oct-18 06:30N 36°08' W 005°17'0 0.4
2017-Oct-18 06:00N 36°08' W 005°17'0 0.3
2017-Oct-18 05:30N 36°08' W 005°17'0 0.4
2017-Oct-18 05:00N 36°08' W 005°17'0 0.1
2017-Oct-18 04:30N 36°08' W 005°17'0 0.0
2017-Oct-18 04:00N 36°08' W 005°17'0 0.0
2017-Oct-18 03:30N 36°08' W 005°17'0 0.1
2017-Oct-18 03:00N 36°08' W 005°17'0 0.0
2017-Oct-18 02:30N 36°08' W 005°17'0 0.0
2017-Oct-18 02:00N 36°08' W 005°17'0 0.1
2017-Oct-18 01:30N 36°08' W 005°17'0 0.2
2017-Oct-18 01:00N 36°08' W 005°17'0 0.2
2017-Oct-18 00:30N 36°08' W 005°17'1 1.0
2017-Oct-18 00:00N 36°08' W 005°17'3 5.7
2017-Oct-17 23:30N 36°05' W 005°18'3 6.7
2017-Oct-17 23:00N 36°03' W 005°22'2 5.0
2017-Oct-17 22:30N 36°05' W 005°24'3 6.4
2017-Oct-17 22:00N 36°08' W 005°23'0 0.0
2017-Oct-17 01:04N 36°08' W 005°23'0 2.0
2017-Oct-17 01:00N 36°08' W 005°23'1 1.6
2017-Oct-17 00:30N 36°08' W 005°22'0 0.0
2017-Oct-16 17:33N 36°08' W 005°22'0 0.0
2017-Oct-16 17:31N 36°08' W 005°22'1 1.7
2017-Oct-16 17:00N 36°09' W 005°23'0 0.0
2017-Oct-16 08:13N 36°09' W 005°23'1 2.7
2017-Oct-16 08:00N 36°09' W 005°22'0 0.0
2017-Oct-15 09:26N 36°09' W 005°22'0 0.3
2017-Oct-15 09:00N 36°08' W 005°22'0 0.0
2017-Oct-15 05:10N 36°08' W 005°22'0 0.2
2017-Oct-15 04:59N 36°08' W 005°22'2 0.1
2017-Oct-14 12:34N 36°06' W 005°22'0 6.8
2017-Oct-14 12:30N 36°06' W 005°22'3 5.2
2017-Oct-14 12:00N 36°07' W 005°19'1 2.6
2017-Oct-14 11:29N 36°08' W 005°18'0 0.0
2017-Oct-14 10:44N 36°08' W 005°18'0 0.0
2017-Oct-14 10:20N 36°08' W 005°18'0 0.1
2017-Oct-14 09:59N 36°08' W 005°18'0 0.3
2017-Oct-14 09:29N 36°08' W 005°18'0 0.0
2017-Oct-14 08:59N 36°08' W 005°18'0 0.1
2017-Oct-14 08:29N 36°08' W 005°18'0 0.0
2017-Oct-14 07:59N 36°08' W 005°18'0 0.0
2017-Oct-14 07:20N 36°08' W 005°18'0 0.1
2017-Oct-14 06:59N 36°08' W 005°18'0 0.1
2017-Oct-14 06:23N 36°08' W 005°18'0 0.0
2017-Oct-14 05:53N 36°08' W 005°19'0 0.1
2017-Oct-14 05:29N 36°08' W 005°18'2 3.0
2017-Oct-14 04:51N 36°06' W 005°18'2 6.4
2017-Oct-14 04:30N 36°05' W 005°21'2 3.7
2017-Oct-14 03:56N 36°07' W 005°22'0 0.0
2017-Oct-13 14:59N 36°07' W 005°22'2 0.6
2017-Oct-13 12:17N 36°06' W 005°22'2 6.8
2017-Oct-13 12:01N 36°06' W 005°19'2 4.1
2017-Oct-13 11:28N 36°08' W 005°18'0 0.0
2017-Oct-13 09:54N 36°08' W 005°18'0 0.1
2017-Oct-13 07:45N 36°08' W 005°18'0 0.2
2017-Oct-13 07:30N 36°08' W 005°18'0 0.1
2017-Oct-13 07:00N 36°08' W 005°18'0 0.0
2017-Oct-13 06:30N 36°08' W 005°18'0 0.1
2017-Oct-13 05:57N 36°08' W 005°18'0 0.2
2017-Oct-13 05:30N 36°08' W 005°18'0 0.1
2017-Oct-13 04:57N 36°08' W 005°18'0 0.0
2017-Oct-13 04:30N 36°08' W 005°18'0 0.0
2017-Oct-13 04:00N 36°08' W 005°18'0 0.0
2017-Oct-13 03:12N 36°08' W 005°18'0 0.1
2017-Oct-13 03:00N 36°08' W 005°18'0 0.0
2017-Oct-13 02:27N 36°08' W 005°18'0 0.0
2017-Oct-13 01:54N 36°08' W 005°18'0 0.0
2017-Oct-13 01:30N 36°08' W 005°18'0 0.0
2017-Oct-13 00:54N 36°08' W 005°18'0 0.0
2017-Oct-13 00:27N 36°08' W 005°18'0 0.0
2017-Oct-12 23:26N 36°08' W 005°18'0 0.0
2017-Oct-12 22:57N 36°08' W 005°18'0 0.0
2017-Oct-12 22:27N 36°08' W 005°18'0 0.0
2017-Oct-12 21:57N 36°08' W 005°18'0 0.0
2017-Oct-12 21:24N 36°08' W 005°18'0 0.0
2017-Oct-12 20:57N 36°08' W 005°18'0 0.0
2017-Oct-12 20:27N 36°08' W 005°18'0 0.0
2017-Oct-12 20:00N 36°08' W 005°18'0 0.1
2017-Oct-12 19:27N 36°08' W 005°18'0 0.1
2017-Oct-12 18:58N 36°08' W 005°18'2 4.8
2017-Oct-12 18:30N 36°06' W 005°19'3 5.8
2017-Oct-12 18:00N 36°07' W 005°22'0 0.0
2017-Oct-12 12:17N 36°07' W 005°22'0 0.9
2017-Oct-12 11:55N 36°08' W 005°23'1 0.5
2017-Oct-12 09:30N 36°07' W 005°22'0 0.0
2017-Oct-12 00:17N 36°07' W 005°22'0 0.6
2017-Oct-12 00:01N 36°07' W 005°22'2 3.9
2017-Oct-11 23:30N 36°08' W 005°22'  
Track history (hours):
 
Tides and Currents Weather Stations Pressure Air Temp Water Temp Dewpoint Dewpoint Depression Visibility Wind Speed Wind Dir Waves Ship Positions

Mt Fionia Swan

Last reported at 2017-Oct-21 20:03 UTC. Time now 2017-Oct-22 22:57 UTC.
Position N 36°08' W 005°26'.

Length 148 m; draft 6.5 m.

Type: Tanker. MMSI: 220441000.

Date/timePositionNaut miles runAvg speedWind from/ knotsBaromVisibWave heightAir tempDewpointWater temp
2017-Oct-21 20:03N 36°08' W 005°26'0 0.0
2017-Oct-21 19:56N 36°08' W 005°26'0 0.0
2017-Oct-21 19:30N 36°08' W 005°26'3 0.1
2017-Oct-20 06:02N 36°05' W 005°25'0 0.1
2017-Oct-20 05:38N 36°05' W 005°25'0 0.2
2017-Oct-20 05:29N 36°05' W 005°25'0 0.1
2017-Oct-20 04:59N 36°05' W 005°25'0 0.1
2017-Oct-20 04:29N 36°05' W 005°25'0 0.0
2017-Oct-20 03:59N 36°05' W 005°25'0 0.0
2017-Oct-20 03:29N 36°05' W 005°25'0 0.1
2017-Oct-20 02:59N 36°05' W 005°25'0 0.1
2017-Oct-20 02:29N 36°05' W 005°25'0 0.0
2017-Oct-20 01:59N 36°05' W 005°25'0 0.1
2017-Oct-20 01:29N 36°05' W 005°25'0 0.0
2017-Oct-20 00:59N 36°05' W 005°25'0 0.0
2017-Oct-19 23:59N 36°05' W 005°25'0 0.0
2017-Oct-19 23:26N 36°05' W 005°25'0 0.0
2017-Oct-19 22:59N 36°05' W 005°25'0 0.0
2017-Oct-19 22:29N 36°05' W 005°25'0 0.0
2017-Oct-19 21:59N 36°05' W 005°25'0 0.3
2017-Oct-19 21:29N 36°05' W 005°25'0 0.0
2017-Oct-19 20:53N 36°05' W 005°25'0 0.0
2017-Oct-19 20:29N 36°05' W 005°25'0 0.3
2017-Oct-19 20:00N 36°05' W 005°25'3 5.7
2017-Oct-19 19:30N 36°06' W 005°22'0 0.0
2017-Oct-19 05:37N 36°06' W 005°21'0 0.3
2017-Oct-19 05:30N 36°06' W 005°21'2 4.3
2017-Oct-19 05:00N 36°08' W 005°22'0 0.1
2017-Oct-19 04:30N 36°08' W 005°22'0 0.0
2017-Oct-18 22:22N 36°08' W 005°22'0 0.4
2017-Oct-18 22:01N 36°09' W 005°22'0 0.0
2017-Oct-18 17:52N 36°09' W 005°22'2 4.4
2017-Oct-18 17:29N 36°07' W 005°23'2 5.2
2017-Oct-18 17:00N 36°05' W 005°25'0 0.1
2017-Oct-18 16:21N 36°05' W 005°25'0 0.1
2017-Oct-18 16:00N 36°05' W 005°25'0 0.2
2017-Oct-18 15:21N 36°05' W 005°25'0 0.2
2017-Oct-18 14:54N 36°05' W 005°25'0 0.0
2017-Oct-18 14:00N 36°05' W 005°25'0 0.0
2017-Oct-18 13:30N 36°05' W 005°25'0 0.0
2017-Oct-18 12:57N 36°05' W 005°25'0 0.1
2017-Oct-18 12:30N 36°06' W 005°25'0 0.1
2017-Oct-18 11:57N 36°05' W 005°25'0 0.1
2017-Oct-18 11:30N 36°05' W 005°25'0 0.2
2017-Oct-18 10:57N 36°06' W 005°25'0 0.0
2017-Oct-18 10:27N 36°06' W 005°25'0 0.1
2017-Oct-18 10:00N 36°06' W 005°25'0 0.0
2017-Oct-18 09:24N 36°06' W 005°25'0 0.0
2017-Oct-18 09:00N 36°06' W 005°25'0 0.1
2017-Oct-18 08:27N 36°06' W 005°25'0 0.1
2017-Oct-18 08:00N 36°06' W 005°25'3 5.5
2017-Oct-18 07:30N 36°05' W 005°22'3 6.3
2017-Oct-18 07:00N 36°06' W 005°18'2 3.5
2017-Oct-18 06:30N 36°08' W 005°17'0 0.4
2017-Oct-18 06:00N 36°08' W 005°17'0 0.3
2017-Oct-18 05:30N 36°08' W 005°17'0 0.4
2017-Oct-18 05:00N 36°08' W 005°17'0 0.1
2017-Oct-18 04:30N 36°08' W 005°17'0 0.0
2017-Oct-18 04:00N 36°08' W 005°17'0 0.0
2017-Oct-18 03:30N 36°08' W 005°17'0 0.1
2017-Oct-18 03:00N 36°08' W 005°17'0 0.0
2017-Oct-18 02:30N 36°08' W 005°17'0 0.0
2017-Oct-18 02:00N 36°08' W 005°17'0 0.1
2017-Oct-18 01:30N 36°08' W 005°17'0 0.2
2017-Oct-18 01:00N 36°08' W 005°17'0 0.2
2017-Oct-18 00:30N 36°08' W 005°17'1 1.0
2017-Oct-18 00:00N 36°08' W 005°17'3 5.7
2017-Oct-17 23:30N 36°05' W 005°18'3 6.7
2017-Oct-17 23:00N 36°03' W 005°22'2 5.0
2017-Oct-17 22:30N 36°05' W 005°24'3 6.4
2017-Oct-17 22:00N 36°08' W 005°23'0 0.0
2017-Oct-17 01:04N 36°08' W 005°23'0 2.0
2017-Oct-17 01:00N 36°08' W 005°23'1 1.6
2017-Oct-17 00:30N 36°08' W 005°22'0 0.0
2017-Oct-16 17:33N 36°08' W 005°22'0 0.0
2017-Oct-16 17:31N 36°08' W 005°22'1 1.7
2017-Oct-16 17:00N 36°09' W 005°23'0 0.0
2017-Oct-16 08:13N 36°09' W 005°23'1 2.7
2017-Oct-16 08:00N 36°09' W 005°22'0 0.0
2017-Oct-15 09:26N 36°09' W 005°22'0 0.3
2017-Oct-15 09:00N 36°08' W 005°22'0 0.0
2017-Oct-15 05:10N 36°08' W 005°22'0 0.2
2017-Oct-15 04:59N 36°08' W 005°22'2 0.1
2017-Oct-14 12:34N 36°06' W 005°22'0 6.8
2017-Oct-14 12:30N 36°06' W 005°22'3 5.2
2017-Oct-14 12:00N 36°07' W 005°19'1 2.6
2017-Oct-14 11:29N 36°08' W 005°18'0 0.0
2017-Oct-14 10:44N 36°08' W 005°18'0 0.0
2017-Oct-14 10:20N 36°08' W 005°18'0 0.1
2017-Oct-14 09:59N 36°08' W 005°18'0 0.3
2017-Oct-14 09:29N 36°08' W 005°18'0 0.0
2017-Oct-14 08:59N 36°08' W 005°18'0 0.1
2017-Oct-14 08:29N 36°08' W 005°18'0 0.0
2017-Oct-14 07:59N 36°08' W 005°18'0 0.0
2017-Oct-14 07:20N 36°08' W 005°18'0 0.1
2017-Oct-14 06:59N 36°08' W 005°18'0 0.1
2017-Oct-14 06:23N 36°08' W 005°18'0 0.0
2017-Oct-14 05:53N 36°08' W 005°19'0 0.1
2017-Oct-14 05:29N 36°08' W 005°18'2 3.0
2017-Oct-14 04:51N 36°06' W 005°18'2 6.4
2017-Oct-14 04:30N 36°05' W 005°21'2 3.7
2017-Oct-14 03:56N 36°07' W 005°22'0 0.0
2017-Oct-13 14:59N 36°07' W 005°22'2 0.6
2017-Oct-13 12:17N 36°06' W 005°22'2 6.8
2017-Oct-13 12:01N 36°06' W 005°19'2 4.1
2017-Oct-13 11:28N 36°08' W 005°18'0 0.0
2017-Oct-13 09:54N 36°08' W 005°18'0 0.1
2017-Oct-13 07:45N 36°08' W 005°18'0 0.2
2017-Oct-13 07:30N 36°08' W 005°18'0 0.1
2017-Oct-13 07:00N 36°08' W 005°18'0 0.0
2017-Oct-13 06:30N 36°08' W 005°18'0 0.1
2017-Oct-13 05:57N 36°08' W 005°18'0 0.2
2017-Oct-13 05:30N 36°08' W 005°18'0 0.1
2017-Oct-13 04:57N 36°08' W 005°18'0 0.0
2017-Oct-13 04:30N 36°08' W 005°18'0 0.0
2017-Oct-13 04:00N 36°08' W 005°18'0 0.0
2017-Oct-13 03:12N 36°08' W 005°18'0 0.1
2017-Oct-13 03:00N 36°08' W 005°18'0 0.0
2017-Oct-13 02:27N 36°08' W 005°18'0 0.0
2017-Oct-13 01:54N 36°08' W 005°18'0 0.0
2017-Oct-13 01:30N 36°08' W 005°18'0 0.0
2017-Oct-13 00:54N 36°08' W 005°18'0 0.0
2017-Oct-13 00:27N 36°08' W 005°18'0 0.0
2017-Oct-12 23:26N 36°08' W 005°18'0 0.0
2017-Oct-12 22:57N 36°08' W 005°18'0 0.0
2017-Oct-12 22:27N 36°08' W 005°18'0 0.0
2017-Oct-12 21:57N 36°08' W 005°18'0 0.0
2017-Oct-12 21:24N 36°08' W 005°18'0 0.0
2017-Oct-12 20:57N 36°08' W 005°18'0 0.0
2017-Oct-12 20:27N 36°08' W 005°18'0 0.0
2017-Oct-12 20:00N 36°08' W 005°18'0 0.1
2017-Oct-12 19:27N 36°08' W 005°18'0 0.1
2017-Oct-12 18:58N 36°08' W 005°18'2 4.8
2017-Oct-12 18:30N 36°06' W 005°19'3 5.8
2017-Oct-12 18:00N 36°07' W 005°22'0 0.0
2017-Oct-12 12:17N 36°07' W 005°22'0 0.9
2017-Oct-12 11:55N 36°08' W 005°23'1 0.5
2017-Oct-12 09:30N 36°07' W 005°22'0 0.0
2017-Oct-12 00:17N 36°07' W 005°22'0 0.6
2017-Oct-12 00:01N 36°07' W 005°22'2 3.9
2017-Oct-11 23:30N 36°08' W 005°22'  

Dump ship's entire track history